createdAt,value
2023-03-26T00:02:00.140Z,63.75
2023-03-26T00:07:03.769Z,63.19
2023-03-26T00:12:07.464Z,63.71
2023-03-26T00:17:12.589Z,62.68
2023-03-26T00:22:17.026Z,62.29
2023-03-26T00:27:20.651Z,62.97
2023-03-26T00:32:28.051Z,62.36
2023-03-26T00:37:34.025Z,62.03
2023-03-26T00:42:38.155Z,62.18
2023-03-26T00:47:44.156Z,61.95
2023-03-26T00:52:47.984Z,62.24
2023-03-26T00:57:51.574Z,61.40
2023-03-26T01:02:59.304Z,61.88
2023-03-26T01:08:06.834Z,61.65
2023-03-26T01:13:11.035Z,61.93
2023-03-26T01:18:18.119Z,61.11
2023-03-26T01:23:34.411Z,61.70
2023-03-26T01:28:43.247Z,61.48
2023-03-26T01:33:59.928Z,61.19
2023-03-26T01:39:23.262Z,61.66
2023-03-26T01:44:40.808Z,62.10
2023-03-26T01:49:55.814Z,62.10
2023-03-26T01:55:06.852Z,61.77
2023-03-26T02:00:29.605Z,61.21
2023-03-26T02:05:38.245Z,61.74
2023-03-26T02:10:53.699Z,61.58
2023-03-26T02:16:01.195Z,61.19
2023-03-26T02:21:10.160Z,62.03
2023-03-26T02:26:20.760Z,61.57
2023-03-26T02:31:38.268Z,61.74
2023-03-26T02:36:43.367Z,62.43
2023-03-26T02:41:56.744Z,62.03
2023-03-26T02:47:03.920Z,61.89
2023-03-26T02:52:11.089Z,62.25
2023-03-26T02:57:15.749Z,62.67
2023-03-26T03:02:40.451Z,62.87
2023-03-26T03:08:06.209Z,62.79
2023-03-26T03:13:16.073Z,62.45
2023-03-26T03:18:30.324Z,61.67
2023-03-26T03:23:47.232Z,62.67
2023-03-26T03:28:56.689Z,62.74
2023-03-26T03:34:13.547Z,62.73
2023-03-26T03:39:23.371Z,63.00
2023-03-26T03:44:36.221Z,62.73
2023-03-26T03:49:49.006Z,62.37
2023-03-26T03:55:14.945Z,61.98
2023-03-26T04:01:25.152Z,61.00
2023-03-26T04:14:23.273Z,61.51
2023-03-26T04:19:46.895Z,62.65
2023-03-26T04:24:58.920Z,62.71
2023-03-26T04:30:05.909Z,62.78
2023-03-26T04:35:29.502Z,61.75
2023-03-26T04:40:43.761Z,62.41
2023-03-26T04:46:46.481Z,62.84
2023-03-26T04:52:54.832Z,61.24
2023-03-26T04:58:30.746Z,62.51
2023-03-26T05:04:42.999Z,61.71
2023-03-26T05:17:29.016Z,60.84
2023-03-26T05:22:45.973Z,61.39
2023-03-26T05:34:24.299Z,61.29
2023-03-26T05:39:33.910Z,61.30
2023-03-26T05:45:27.105Z,61.36
2023-03-26T05:51:15.309Z,61.30
2023-03-26T05:57:03.170Z,59.75
2023-03-26T06:03:00.134Z,58.96
2023-03-26T06:08:31.340Z,59.62
2023-03-26T06:13:46.303Z,59.54
2023-03-26T06:19:09.097Z,59.47
2023-03-26T06:24:39.209Z,59.49
2023-03-26T06:30:04.241Z,59.30
2023-03-26T06:35:45.856Z,60.13
2023-03-26T06:41:16.037Z,60.65
2023-03-26T06:47:21.649Z,60.36
2023-03-26T06:59:03.619Z,58.77
2023-03-26T07:04:33.404Z,59.50
2023-03-26T07:09:56.315Z,53.08
2023-03-26T07:15:30.612Z,56.06
2023-03-26T07:21:14.667Z,56.57
2023-03-26T07:26:37.688Z,57.78
2023-03-26T07:32:07.621Z,59.54
2023-03-26T07:37:44.069Z,60.27
2023-03-26T07:43:25.568Z,60.66
2023-03-26T07:48:55.167Z,61.81
2023-03-26T08:22:13.167Z,65.39
2023-03-26T08:27:23.964Z,64.57
2023-03-26T08:32:28.327Z,65.40
2023-03-26T08:37:33.427Z,65.70
2023-03-26T08:43:13.163Z,63.64
2023-03-26T08:49:24.884Z,64.42
2023-03-26T08:55:17.384Z,64.82
2023-03-26T09:00:55.480Z,65.17
2023-03-26T09:06:40.198Z,65.58
2023-03-26T09:18:17.331Z,66.23
2023-03-26T09:24:07.258Z,65.90
2023-03-26T09:29:54.628Z,65.61
2023-03-26T09:35:15.161Z,66.96
2023-03-26T09:40:20.446Z,64.88
2023-03-26T09:45:46.871Z,66.43
2023-03-26T09:51:20.492Z,64.99
2023-03-26T09:56:36.841Z,65.80
2023-03-26T10:01:52.229Z,66.54
2023-03-26T10:07:02.852Z,65.83
2023-03-26T10:12:20.186Z,64.64
2023-03-26T10:17:37.328Z,66.49
2023-03-26T10:22:53.351Z,66.34
2023-03-26T10:28:11.276Z,65.08
2023-03-26T10:33:29.480Z,62.84
2023-03-26T10:38:50.559Z,60.16
2023-03-26T10:44:32.676Z,56.67
2023-03-26T10:50:16.582Z,57.91
2023-03-26T10:55:33.210Z,53.19
2023-03-26T11:00:43.843Z,55.60
2023-03-26T11:05:52.530Z,52.00
2023-03-26T11:11:06.313Z,51.12
2023-03-26T11:16:24.464Z,54.02
2023-03-26T11:21:35.662Z,51.04
2023-03-26T11:26:52.992Z,50.56
2023-03-26T11:32:06.081Z,47.76
2023-03-26T11:37:17.626Z,47.73
2023-03-26T11:42:57.335Z,50.32
2023-03-26T11:48:09.503Z,52.12
2023-03-26T11:53:16.357Z,56.00
2023-03-26T11:58:31.130Z,55.03
2023-03-26T12:03:34.994Z,56.83
2023-03-26T12:08:42.457Z,56.58
2023-03-26T12:13:56.309Z,55.70
2023-03-26T12:19:04.025Z,55.18
2023-03-26T12:24:27.243Z,56.79
2023-03-26T12:29:34.582Z,55.65
2023-03-26T12:34:39.595Z,53.24
2023-03-26T12:40:09.351Z,52.57
2023-03-26T12:45:15.810Z,48.58
2023-03-26T12:50:34.223Z,48.23
2023-03-26T12:55:51.218Z,48.54
2023-03-26T13:01:08.786Z,49.16
2023-03-26T13:06:31.244Z,46.37
2023-03-26T13:12:09.177Z,46.43
2023-03-26T13:17:23.807Z,46.48
2023-03-26T13:22:36.880Z,46.32
2023-03-26T13:27:52.363Z,48.79
2023-03-26T13:33:24.733Z,48.02
2023-03-26T13:38:41.127Z,49.83
2023-03-26T13:44:02.252Z,48.28
2023-03-26T13:49:13.160Z,49.64
2023-03-26T13:54:22.720Z,48.86
2023-03-26T13:59:32.739Z,48.42
2023-03-26T14:04:43.845Z,48.40
2023-03-26T14:09:52.412Z,48.75
2023-03-26T14:15:01.952Z,49.41
2023-03-26T14:20:40.133Z,49.19
2023-03-26T14:25:56.275Z,49.59
2023-03-26T14:31:19.525Z,49.04
2023-03-26T14:36:39.700Z,49.97
2023-03-26T14:41:51.244Z,51.01
2023-03-26T14:47:09.824Z,47.81
2023-03-26T14:52:27.455Z,50.30
2023-03-26T14:58:10.632Z,49.63
2023-03-26T15:03:48.684Z,52.87
2023-03-26T15:09:29.498Z,56.01
2023-03-26T15:15:11.166Z,58.18
2023-03-26T15:20:48.049Z,60.03
2023-03-26T15:26:24.687Z,60.76
2023-03-26T15:31:43.292Z,62.77
2023-03-26T15:37:31.882Z,63.76
2023-03-26T15:42:47.493Z,65.08
2023-03-26T15:48:01.459Z,64.10
2023-03-26T15:53:21.345Z,63.51
2023-03-26T15:58:36.307Z,62.56
2023-03-26T16:03:49.568Z,62.09
2023-03-26T16:09:15.136Z,61.00
2023-03-26T16:14:23.693Z,61.47
2023-03-26T16:20:04.794Z,60.75
2023-03-26T16:25:27.298Z,59.64
2023-03-26T16:30:34.027Z,60.16
2023-03-26T16:36:03.627Z,58.16
2023-03-26T16:41:17.529Z,59.02
2023-03-26T16:46:32.491Z,59.26
2023-03-26T16:51:55.404Z,58.45
2023-03-26T16:57:07.879Z,58.71
2023-03-26T17:02:21.650Z,58.88
2023-03-26T17:07:34.159Z,59.05
2023-03-26T17:12:42.896Z,59.36
2023-03-26T17:18:03.376Z,58.60
2023-03-26T17:23:26.040Z,58.58
2023-03-26T17:28:44.935Z,58.17
2023-03-26T17:33:49.912Z,58.20
2023-03-26T17:39:20.005Z,57.53
2023-03-26T17:44:46.322Z,57.98
2023-03-26T17:49:52.672Z,58.92
2023-03-26T17:54:58.195Z,58.80
2023-03-26T18:00:05.868Z,58.12
2023-03-26T18:05:17.679Z,58.81
2023-03-26T18:10:39.979Z,57.74
2023-03-26T18:15:54.928Z,58.50
2023-03-26T18:21:04.458Z,59.03
2023-03-26T18:26:15.533Z,58.60
2023-03-26T18:31:21.452Z,59.85
2023-03-26T18:36:27.847Z,59.79
2023-03-26T18:41:39.334Z,59.54
2023-03-26T18:46:43.734Z,59.72
2023-03-26T18:51:56.870Z,59.85
2023-03-26T18:57:16.126Z,59.50
2023-03-26T19:02:21.920Z,59.82
2023-03-26T19:07:27.454Z,59.75
2023-03-26T19:12:35.890Z,59.63
2023-03-26T19:17:41.742Z,59.23
2023-03-26T19:22:46.554Z,59.11
2023-03-26T19:27:51.866Z,59.05
2023-03-26T19:32:56.604Z,59.02
2023-03-26T19:38:23.603Z,59.49
2023-03-26T19:43:28.813Z,59.82
2023-03-26T19:48:46.352Z,59.68
2023-03-26T19:53:54.354Z,59.40
2023-03-26T19:58:59.567Z,59.11
2023-03-26T20:04:06.464Z,58.95
2023-03-26T20:09:10.248Z,59.86
2023-03-26T20:14:17.092Z,59.90
2023-03-26T20:19:20.770Z,59.99
2023-03-26T20:24:26.154Z,60.49
2023-03-26T20:29:31.081Z,60.31
2023-03-26T20:34:35.018Z,60.71
2023-03-26T20:39:39.803Z,61.10
2023-03-26T20:44:44.869Z,61.28
2023-03-26T20:49:56.224Z,60.92
2023-03-26T20:55:00.929Z,60.81
2023-03-26T21:00:15.054Z,60.90
2023-03-26T21:05:24.288Z,61.12
2023-03-26T21:10:29.715Z,61.09
2023-03-26T21:15:35.908Z,62.03
2023-03-26T21:20:41.473Z,63.26
2023-03-26T21:26:01.485Z,64.13
2023-03-26T21:31:08.883Z,64.22
2023-03-26T21:36:13.440Z,65.47
2023-03-26T21:41:27.028Z,65.72
2023-03-26T21:46:32.858Z,65.46
2023-03-26T21:51:38.055Z,66.59
2023-03-26T21:56:49.855Z,66.22
2023-03-26T22:02:01.324Z,67.15
2023-03-26T22:07:12.542Z,67.43
2023-03-26T22:12:16.859Z,67.89
2023-03-26T22:17:22.466Z,67.34
2023-03-26T22:22:26.332Z,67.26
2023-03-26T22:27:29.992Z,68.39
2023-03-26T22:32:36.790Z,67.62
2023-03-26T22:37:40.550Z,68.85
2023-03-26T22:42:44.049Z,70.39
2023-03-26T22:47:49.004Z,70.46
2023-03-26T22:52:52.624Z,72.32
2023-03-26T22:57:56.324Z,71.21
2023-03-26T23:03:01.933Z,70.93
2023-03-26T23:08:06.151Z,70.70
2023-03-26T23:13:09.636Z,71.48
2023-03-26T23:18:14.459Z,70.31
2023-03-26T23:23:18.547Z,70.95
2023-03-26T23:28:24.066Z,72.27
2023-03-26T23:33:31.812Z,70.33
2023-03-26T23:38:43.048Z,70.80
2023-03-26T23:43:53.776Z,71.25
2023-03-26T23:49:02.201Z,70.96
2023-03-26T23:54:06.671Z,71.41
2023-03-26T23:59:10.248Z,71.16
